createdAt,value
2024-03-30T00:01:27.103Z,62.72
2024-03-30T00:03:55.164Z,61.51
2024-03-30T00:06:23.754Z,61.27
2024-03-30T00:08:52.027Z,61.62
2024-03-30T00:11:20.413Z,60.98
2024-03-30T00:13:48.789Z,60.52
2024-03-30T00:16:19.121Z,60.98
2024-03-30T00:18:47.486Z,60.87
2024-03-30T00:21:16.511Z,61.76
2024-03-30T00:23:48.068Z,61.40
2024-03-30T00:26:17.272Z,61.98
2024-03-30T00:28:47.638Z,62.02
2024-03-30T00:31:16.892Z,62.88
2024-03-30T00:33:46.976Z,62.34
2024-03-30T00:36:15.500Z,62.10
2024-03-30T00:38:46.858Z,61.95
2024-03-30T00:41:15.469Z,62.29
2024-03-30T00:43:45.611Z,61.53
2024-03-30T00:46:14.173Z,63.24
2024-03-30T00:48:42.419Z,62.54
2024-03-30T00:51:11.318Z,61.83
2024-03-30T00:53:40.749Z,63.88
2024-03-30T00:56:09.088Z,63.18
2024-03-30T00:58:37.366Z,63.37
2024-03-30T01:01:06.300Z,63.99
2024-03-30T01:03:34.810Z,64.36
2024-03-30T01:06:03.581Z,63.42
2024-03-30T01:08:31.776Z,62.50
2024-03-30T01:11:00.761Z,63.79
2024-03-30T01:13:31.018Z,63.12
2024-03-30T01:16:00.071Z,62.77
2024-03-30T01:18:28.818Z,62.24
2024-03-30T01:20:59.618Z,62.95
2024-03-30T01:23:30.832Z,62.82
2024-03-30T01:26:01.260Z,63.26
2024-03-30T01:28:31.229Z,62.38
2024-03-30T01:31:01.203Z,62.86
2024-03-30T01:33:30.157Z,62.76
2024-03-30T01:35:59.254Z,63.70
2024-03-30T01:38:28.234Z,64.16
2024-03-30T01:40:57.403Z,64.49
2024-03-30T01:43:27.821Z,64.17
2024-03-30T01:45:59.258Z,64.07
2024-03-30T01:48:28.800Z,63.39
2024-03-30T01:50:57.442Z,63.92
2024-03-30T01:53:36.708Z,64.50
2024-03-30T01:56:10.907Z,64.63
2024-03-30T01:58:40.099Z,64.50
2024-03-30T02:01:09.257Z,66.19
2024-03-30T02:03:38.101Z,67.06
2024-03-30T02:06:08.596Z,66.64
2024-03-30T02:08:37.636Z,65.23
2024-03-30T02:11:06.505Z,66.24
2024-03-30T02:13:36.604Z,67.30
2024-03-30T02:16:05.370Z,67.30
2024-03-30T02:18:34.339Z,67.79
2024-03-30T02:21:03.029Z,66.42
2024-03-30T02:23:32.055Z,66.14
2024-03-30T02:26:02.039Z,66.98
2024-03-30T02:28:30.963Z,66.30
2024-03-30T02:31:00.132Z,65.88
2024-03-30T02:33:28.644Z,66.84
2024-03-30T02:35:58.514Z,66.66
2024-03-30T02:38:27.209Z,66.27
2024-03-30T02:40:58.151Z,66.69
2024-03-30T02:43:26.991Z,66.48
2024-03-30T02:45:55.702Z,67.02
2024-03-30T02:48:24.451Z,67.38
2024-03-30T02:50:52.976Z,67.63
2024-03-30T02:53:21.414Z,68.25
2024-03-30T02:55:50.289Z,68.12
2024-03-30T02:58:19.298Z,67.87
2024-03-30T03:00:49.000Z,66.93
2024-03-30T03:03:17.774Z,66.11
2024-03-30T03:05:46.579Z,66.85
2024-03-30T03:08:15.878Z,66.86
2024-03-30T03:10:44.932Z,66.44
2024-03-30T03:13:13.535Z,66.85
2024-03-30T03:15:42.042Z,67.47
2024-03-30T03:18:10.985Z,66.46
2024-03-30T03:20:39.486Z,66.40
2024-03-30T03:23:08.486Z,67.32
2024-03-30T03:25:36.975Z,66.84
2024-03-30T03:28:05.703Z,66.38
2024-03-30T03:30:34.239Z,65.88
2024-03-30T03:33:02.780Z,66.57
2024-03-30T03:35:31.436Z,65.64
2024-03-30T03:37:59.937Z,65.93
2024-03-30T03:40:28.994Z,66.04
2024-03-30T03:42:57.565Z,66.99
2024-03-30T03:45:25.960Z,66.48
2024-03-30T03:47:54.702Z,65.53
2024-03-30T03:50:23.110Z,65.98
2024-03-30T03:52:51.703Z,66.13
2024-03-30T03:55:21.163Z,66.32
2024-03-30T03:57:52.225Z,66.34
2024-03-30T04:00:20.930Z,66.64
2024-03-30T04:02:49.818Z,66.89
2024-03-30T04:05:18.763Z,67.19
2024-03-30T04:07:47.680Z,66.89
2024-03-30T04:10:16.854Z,66.81
2024-03-30T04:12:45.677Z,66.76
2024-03-30T04:15:14.275Z,66.72
2024-03-30T04:17:43.229Z,66.74
2024-03-30T04:20:11.991Z,67.21
2024-03-30T04:22:40.792Z,66.53
2024-03-30T04:25:09.429Z,66.73
2024-03-30T04:27:37.638Z,65.97
2024-03-30T04:30:08.716Z,65.81
2024-03-30T04:32:37.147Z,66.47
2024-03-30T04:35:05.852Z,67.01
2024-03-30T04:37:34.358Z,66.80
2024-03-30T04:40:02.860Z,66.29
2024-03-30T04:42:31.614Z,66.65
2024-03-30T04:45:00.251Z,66.75
2024-03-30T04:47:29.146Z,66.65
2024-03-30T04:49:58.199Z,66.01
2024-03-30T04:52:27.091Z,66.27
2024-03-30T04:54:55.850Z,65.96
2024-03-30T04:57:25.586Z,65.94
2024-03-30T04:59:54.584Z,65.50
2024-03-30T05:02:23.361Z,64.81
2024-03-30T05:04:51.838Z,64.98
2024-03-30T05:07:20.323Z,64.17
2024-03-30T05:09:48.904Z,64.12
2024-03-30T05:12:17.305Z,63.92
2024-03-30T05:14:45.661Z,63.29
2024-03-30T05:17:14.345Z,63.12
2024-03-30T05:20:01.470Z,62.77
2024-03-30T05:22:30.255Z,62.80
2024-03-30T05:24:58.716Z,62.27
2024-03-30T05:27:27.187Z,62.09
2024-03-30T05:29:59.207Z,61.80
2024-03-30T05:32:27.991Z,61.40
2024-03-30T05:34:56.540Z,61.21
2024-03-30T05:37:25.762Z,60.56
2024-03-30T05:39:54.614Z,60.13
2024-03-30T05:42:23.150Z,59.77
2024-03-30T05:44:52.315Z,58.91
2024-03-30T05:47:20.549Z,59.11
2024-03-30T05:49:48.947Z,59.06
2024-03-30T05:52:17.227Z,57.07
2024-03-30T05:54:45.468Z,57.12
2024-03-30T05:57:13.949Z,57.00
2024-03-30T05:59:42.719Z,56.98
2024-03-30T06:02:11.051Z,57.24
2024-03-30T06:04:39.634Z,55.65
2024-03-30T06:07:10.063Z,55.96
2024-03-30T06:09:39.014Z,55.62
2024-03-30T06:12:07.638Z,55.16
2024-03-30T06:14:36.108Z,55.77
2024-03-30T06:17:04.713Z,54.18
2024-03-30T06:19:33.248Z,54.94
2024-03-30T06:22:01.843Z,55.18
2024-03-30T06:24:30.969Z,53.42
2024-03-30T06:26:59.593Z,53.11
2024-03-30T06:29:28.188Z,53.99
2024-03-30T06:31:56.859Z,54.13
2024-03-30T06:34:25.811Z,52.19
2024-03-30T06:36:54.557Z,51.29
2024-03-30T06:39:23.131Z,49.59
2024-03-30T06:42:09.891Z,47.99
2024-03-30T06:44:38.668Z,48.81
2024-03-30T06:47:07.212Z,46.20
2024-03-30T06:49:36.561Z,46.29
2024-03-30T06:52:05.951Z,45.00
2024-03-30T06:54:34.533Z,45.66
2024-03-30T06:57:02.869Z,44.72
2024-03-30T06:59:31.533Z,45.07
2024-03-30T07:02:03.569Z,46.19
2024-03-30T07:04:31.944Z,46.47
2024-03-30T07:07:00.618Z,46.45
2024-03-30T07:09:31.497Z,46.37
2024-03-30T07:12:00.378Z,45.14
2024-03-30T07:14:28.953Z,45.26
2024-03-30T07:17:13.983Z,45.22
2024-03-30T07:19:43.497Z,44.88
2024-03-30T07:22:11.877Z,44.88
2024-03-30T07:24:40.420Z,44.32
2024-03-30T07:27:08.954Z,43.91
2024-03-30T07:29:37.771Z,43.33
2024-03-30T07:32:06.806Z,42.92
2024-03-30T07:34:35.320Z,42.69
2024-03-30T07:37:03.950Z,42.28
2024-03-30T07:39:32.312Z,41.95
2024-03-30T07:42:00.766Z,41.12
2024-03-30T07:44:30.967Z,41.53
2024-03-30T07:46:59.736Z,40.94
2024-03-30T07:49:28.537Z,41.46
2024-03-30T07:51:57.203Z,42.46
2024-03-30T07:54:25.896Z,42.70
2024-03-30T07:57:00.238Z,43.08
2024-03-30T07:59:28.908Z,42.65
2024-03-30T08:01:58.107Z,42.37
2024-03-30T08:04:26.582Z,43.18
2024-03-30T08:06:56.709Z,43.02
2024-03-30T08:09:25.716Z,42.38
2024-03-30T08:11:55.726Z,41.27
2024-03-30T08:14:24.334Z,40.57
2024-03-30T08:16:52.784Z,40.44
2024-03-30T08:19:21.018Z,39.74
2024-03-30T08:21:52.408Z,39.88
2024-03-30T08:24:20.744Z,40.34
2024-03-30T08:26:49.317Z,41.45
2024-03-30T08:29:17.698Z,41.12
2024-03-30T08:31:46.067Z,40.95
2024-03-30T08:34:15.303Z,40.61
2024-03-30T08:36:44.839Z,40.22
2024-03-30T08:39:13.483Z,40.06
2024-03-30T08:41:43.818Z,39.88
2024-03-30T08:44:13.160Z,40.12
2024-03-30T08:46:42.152Z,40.49
2024-03-30T08:49:11.543Z,40.67
2024-03-30T08:51:40.329Z,40.43
2024-03-30T08:54:10.139Z,39.92
2024-03-30T08:56:38.916Z,40.17
2024-03-30T08:59:07.953Z,39.82
2024-03-30T09:01:36.213Z,39.62
2024-03-30T09:04:05.120Z,39.32
2024-03-30T09:06:34.046Z,39.43
2024-03-30T09:09:02.393Z,39.83
2024-03-30T09:11:31.355Z,39.83
2024-03-30T09:13:59.659Z,39.81
2024-03-30T09:16:28.422Z,40.01
2024-03-30T09:18:58.305Z,40.07
2024-03-30T09:21:26.741Z,39.97
2024-03-30T09:23:55.363Z,38.87
2024-03-30T09:26:23.811Z,38.27
2024-03-30T09:28:52.245Z,38.01
2024-03-30T09:31:20.937Z,37.87
2024-03-30T09:33:49.737Z,37.47
2024-03-30T09:36:19.815Z,37.60
2024-03-30T09:38:48.561Z,37.77
2024-03-30T09:41:19.780Z,38.20
2024-03-30T09:43:48.669Z,37.27
2024-03-30T09:46:17.450Z,37.07
2024-03-30T09:48:48.233Z,37.18
2024-03-30T09:51:18.225Z,36.33
2024-03-30T09:53:46.738Z,35.23
2024-03-30T09:56:17.374Z,35.77
2024-03-30T09:58:47.974Z,34.78
2024-03-30T10:01:17.082Z,34.75
2024-03-30T10:03:46.364Z,33.82
2024-03-30T10:06:23.680Z,33.96
2024-03-30T10:08:56.717Z,33.61
2024-03-30T10:11:28.750Z,33.47
2024-03-30T10:14:15.564Z,32.79
2024-03-30T10:16:47.192Z,32.88
2024-03-30T10:19:19.813Z,32.39
2024-03-30T10:21:50.881Z,31.86
2024-03-30T10:24:19.521Z,31.04
2024-03-30T10:26:49.319Z,30.77
2024-03-30T10:29:17.894Z,31.19
2024-03-30T10:31:46.905Z,30.88
2024-03-30T10:34:15.799Z,30.76
2024-03-30T10:36:44.833Z,29.64
2024-03-30T10:39:13.161Z,29.13
2024-03-30T10:41:45.374Z,28.68
2024-03-30T10:44:14.922Z,28.42
2024-03-30T10:46:44.435Z,28.82
2024-03-30T10:49:14.347Z,27.57
2024-03-30T10:51:44.051Z,27.50
2024-03-30T10:54:20.447Z,27.64
2024-03-30T10:56:53.255Z,26.25
2024-03-30T10:59:22.214Z,25.47
2024-03-30T11:01:52.501Z,24.35
2024-03-30T11:04:24.678Z,24.68
2024-03-30T11:06:53.871Z,25.81
2024-03-30T11:09:23.917Z,26.33
2024-03-30T11:11:52.952Z,26.58
2024-03-30T11:14:21.672Z,26.81
2024-03-30T11:16:54.713Z,27.10
2024-03-30T11:19:35.752Z,27.54
2024-03-30T11:22:18.024Z,27.42
2024-03-30T11:25:00.991Z,27.81
2024-03-30T11:27:34.687Z,27.32
2024-03-30T11:30:49.797Z,26.60
2024-03-30T11:33:28.592Z,26.05
2024-03-30T11:36:20.538Z,25.31
2024-03-30T11:38:59.525Z,25.11
2024-03-30T11:41:28.371Z,24.98
2024-03-30T11:44:11.228Z,25.66
2024-03-30T11:46:40.314Z,26.08
2024-03-30T11:49:09.981Z,25.74
2024-03-30T11:51:43.078Z,25.78
2024-03-30T11:54:29.472Z,25.92
2024-03-30T11:57:23.240Z,26.14
2024-03-30T11:59:55.432Z,25.87
2024-03-30T12:02:26.445Z,26.02
2024-03-30T12:04:54.931Z,26.94
2024-03-30T12:07:23.557Z,27.44
2024-03-30T12:09:53.121Z,27.08
2024-03-30T12:12:26.779Z,26.68
2024-03-30T12:14:57.659Z,26.80
2024-03-30T12:17:26.794Z,26.32
2024-03-30T12:19:59.098Z,25.45
2024-03-30T12:22:27.856Z,25.36
2024-03-30T12:24:57.578Z,25.06
2024-03-30T12:27:26.484Z,24.74
2024-03-30T12:29:56.956Z,24.77
2024-03-30T12:32:25.536Z,24.83
2024-03-30T12:34:56.112Z,24.67
2024-03-30T12:37:25.446Z,24.44
2024-03-30T12:39:54.828Z,24.75
2024-03-30T12:42:23.126Z,24.81
2024-03-30T12:44:58.646Z,24.92
2024-03-30T12:47:27.603Z,24.50
2024-03-30T12:49:56.904Z,25.24
2024-03-30T12:52:26.024Z,25.58
2024-03-30T12:54:54.651Z,25.76
2024-03-30T12:57:25.926Z,25.95
2024-03-30T12:59:58.081Z,25.82
2024-03-30T13:02:29.067Z,25.72
2024-03-30T13:05:09.626Z,26.20
2024-03-30T13:07:41.024Z,26.47
2024-03-30T13:10:11.836Z,26.58
2024-03-30T13:12:40.369Z,26.65
2024-03-30T13:15:09.007Z,26.68
2024-03-30T13:17:37.399Z,26.17
2024-03-30T13:20:09.777Z,25.88
2024-03-30T13:22:43.448Z,26.05
2024-03-30T13:25:14.069Z,25.73
2024-03-30T13:27:44.302Z,25.61
2024-03-30T13:30:16.041Z,25.51
2024-03-30T13:32:45.935Z,25.64
2024-03-30T13:35:15.115Z,25.57
2024-03-30T13:37:47.567Z,25.08
2024-03-30T13:40:16.922Z,24.63
2024-03-30T13:42:45.663Z,24.55
2024-03-30T13:45:15.892Z,24.48
2024-03-30T13:47:44.964Z,23.97
2024-03-30T13:50:13.583Z,23.89
2024-03-30T13:52:45.983Z,23.92
2024-03-30T13:55:14.790Z,23.26
2024-03-30T13:57:43.227Z,23.69
2024-03-30T14:00:13.276Z,23.65
2024-03-30T14:02:42.486Z,23.59
2024-03-30T14:05:10.966Z,23.57
2024-03-30T14:07:39.899Z,23.64
2024-03-30T14:10:08.931Z,23.48
2024-03-30T14:12:37.931Z,23.38
2024-03-30T14:15:06.931Z,23.46
2024-03-30T14:17:40.554Z,22.72
2024-03-30T14:20:09.572Z,22.81
2024-03-30T14:22:40.387Z,22.88
2024-03-30T14:25:08.955Z,23.12
2024-03-30T14:27:37.519Z,23.07
2024-03-30T14:30:07.769Z,23.23
2024-03-30T14:32:36.771Z,22.92
2024-03-30T14:35:06.040Z,22.87
2024-03-30T14:37:34.561Z,22.72
2024-03-30T14:40:06.313Z,22.24
2024-03-30T14:42:35.580Z,22.05
2024-03-30T14:45:04.975Z,22.40
2024-03-30T14:47:33.816Z,22.24
2024-03-30T14:50:02.937Z,22.31
2024-03-30T14:52:31.795Z,22.13
2024-03-30T14:55:00.640Z,22.18
2024-03-30T14:57:30.103Z,22.26
2024-03-30T14:59:58.787Z,22.41
2024-03-30T15:02:27.610Z,22.22
2024-03-30T15:04:57.405Z,22.61
2024-03-30T15:07:28.713Z,22.64
2024-03-30T15:09:59.721Z,22.54
2024-03-30T15:12:29.205Z,22.57
2024-03-30T15:14:58.412Z,22.78
2024-03-30T15:17:27.565Z,22.83
2024-03-30T15:19:57.354Z,22.60
2024-03-30T15:22:26.434Z,22.52
2024-03-30T15:24:55.964Z,22.46
2024-03-30T15:27:25.833Z,22.56
2024-03-30T15:30:13.698Z,22.47
2024-03-30T15:32:42.793Z,22.79
2024-03-30T15:35:12.001Z,22.75
2024-03-30T15:37:44.584Z,23.13
2024-03-30T15:40:13.732Z,23.24
2024-03-30T15:42:43.248Z,23.59
2024-03-30T15:45:12.765Z,23.92
2024-03-30T15:47:43.860Z,24.15
2024-03-30T15:50:12.323Z,24.28
2024-03-30T15:52:40.570Z,24.15
2024-03-30T15:55:09.497Z,24.12
2024-03-30T15:57:38.212Z,24.26
2024-03-30T16:00:08.145Z,24.51
2024-03-30T16:02:38.354Z,24.61
2024-03-30T16:05:07.741Z,24.89
2024-03-30T16:07:36.988Z,25.15
2024-03-30T16:10:06.552Z,25.32
2024-03-30T16:12:35.576Z,25.48
2024-03-30T16:15:08.077Z,25.61
2024-03-30T16:17:37.772Z,25.75
2024-03-30T16:20:07.025Z,25.77
2024-03-30T16:22:36.264Z,25.87
2024-03-30T16:25:05.357Z,25.97
2024-03-30T16:27:34.130Z,26.17
2024-03-30T16:30:06.407Z,26.40
2024-03-30T16:32:37.518Z,26.53
2024-03-30T16:35:07.696Z,26.75
2024-03-30T16:37:36.909Z,26.93
2024-03-30T16:40:05.975Z,27.14
2024-03-30T16:42:35.182Z,27.32
2024-03-30T16:45:03.969Z,27.43
2024-03-30T16:47:32.424Z,27.55
2024-03-30T16:50:01.248Z,27.74
2024-03-30T16:52:30.626Z,28.07
2024-03-30T16:54:59.017Z,28.16
2024-03-30T16:57:27.603Z,28.06
2024-03-30T16:59:55.999Z,28.22
2024-03-30T17:02:24.275Z,28.31
2024-03-30T17:04:53.024Z,28.43
2024-03-30T17:07:22.247Z,28.53
2024-03-30T17:09:51.101Z,28.47
2024-03-30T17:12:20.152Z,28.73
2024-03-30T17:14:49.138Z,28.89
2024-03-30T17:17:17.976Z,29.10
2024-03-30T17:19:50.862Z,29.30
2024-03-30T17:22:20.717Z,29.34
2024-03-30T17:24:49.563Z,29.56
2024-03-30T17:27:17.957Z,29.57
2024-03-30T17:29:46.758Z,29.73
2024-03-30T17:32:15.693Z,29.67
2024-03-30T17:34:53.550Z,29.70
2024-03-30T17:37:25.388Z,29.68
2024-03-30T17:39:53.640Z,29.84
2024-03-30T17:42:23.377Z,29.71
2024-03-30T17:44:52.071Z,29.84
2024-03-30T17:47:20.744Z,29.81
2024-03-30T17:49:51.734Z,29.74
2024-03-30T17:52:20.128Z,29.79
2024-03-30T17:54:49.274Z,29.92
2024-03-30T17:57:17.797Z,29.95
2024-03-30T17:59:46.636Z,29.92
2024-03-30T18:02:14.952Z,29.92
2024-03-30T18:04:43.508Z,29.99
2024-03-30T18:07:12.447Z,30.02
2024-03-30T18:09:41.339Z,30.15
2024-03-30T18:12:10.161Z,30.22
2024-03-30T18:14:38.914Z,30.29
2024-03-30T18:17:07.220Z,30.56
2024-03-30T18:19:40.174Z,30.33
2024-03-30T18:22:09.311Z,30.74
2024-03-30T18:24:38.222Z,30.67
2024-03-30T18:27:07.163Z,30.79
2024-03-30T18:29:37.173Z,31.03
2024-03-30T18:32:06.336Z,31.02
2024-03-30T18:34:34.951Z,30.98
2024-03-30T18:37:03.505Z,31.23
2024-03-30T18:39:31.948Z,31.16
2024-03-30T18:42:01.110Z,31.11
2024-03-30T18:44:29.281Z,31.63
2024-03-30T18:46:57.583Z,31.91
2024-03-30T18:49:26.214Z,32.25
2024-03-30T18:51:54.835Z,32.87
2024-03-30T18:54:23.173Z,32.83
2024-03-30T18:56:54.203Z,33.06
2024-03-30T18:59:25.900Z,33.29
2024-03-30T19:01:54.155Z,33.93
2024-03-30T19:04:22.778Z,34.20
2024-03-30T19:06:51.103Z,35.30
2024-03-30T19:09:19.638Z,35.81
2024-03-30T19:11:48.295Z,35.62
2024-03-30T19:14:17.161Z,35.23
2024-03-30T19:16:45.982Z,36.33
2024-03-30T19:19:16.983Z,36.90
2024-03-30T19:21:45.327Z,37.41
2024-03-30T19:24:13.785Z,38.09
2024-03-30T19:26:42.813Z,38.34
2024-03-30T19:29:13.593Z,38.56
2024-03-30T19:31:42.169Z,38.30
2024-03-30T19:34:14.034Z,38.39
2024-03-30T19:36:45.092Z,38.13
2024-03-30T19:39:14.024Z,38.29
2024-03-30T19:41:43.395Z,38.31
2024-03-30T19:44:11.698Z,38.17
2024-03-30T19:46:40.066Z,38.21
2024-03-30T19:49:08.442Z,38.02
2024-03-30T19:51:37.188Z,38.58
2024-03-30T19:54:05.531Z,38.64
2024-03-30T19:56:35.158Z,38.51
2024-03-30T19:59:04.569Z,38.63
2024-03-30T20:01:33.269Z,38.56
2024-03-30T20:04:02.102Z,39.18
2024-03-30T20:06:31.059Z,38.95
2024-03-30T20:08:59.309Z,39.28
2024-03-30T20:11:29.254Z,39.39
2024-03-30T20:13:57.505Z,39.38
2024-03-30T20:16:26.084Z,39.89
2024-03-30T20:18:56.822Z,39.67
2024-03-30T20:21:25.109Z,39.84
2024-03-30T20:23:53.910Z,40.05
2024-03-30T20:26:22.434Z,40.09
2024-03-30T20:28:50.502Z,40.37
2024-03-30T20:31:18.732Z,39.97
2024-03-30T20:33:47.155Z,40.66
2024-03-30T20:36:15.355Z,40.89
2024-03-30T20:38:43.339Z,40.55
2024-03-30T20:41:12.619Z,41.70
2024-03-30T20:43:42.394Z,42.63
2024-03-30T20:46:13.865Z,42.81
2024-03-30T20:48:46.339Z,41.91
2024-03-30T20:51:15.073Z,41.92
2024-03-30T20:53:43.232Z,41.78
2024-03-30T20:56:11.642Z,41.86
2024-03-30T20:58:40.729Z,41.98
2024-03-30T21:01:08.774Z,42.00
2024-03-30T21:03:36.981Z,41.64
2024-03-30T21:06:07.371Z,42.64
2024-03-30T21:08:36.171Z,42.77
2024-03-30T21:11:04.628Z,43.15
2024-03-30T21:13:34.129Z,43.23
2024-03-30T21:16:03.439Z,42.89
2024-03-30T21:18:32.187Z,42.73
2024-03-30T21:21:02.135Z,43.22
2024-03-30T21:23:33.597Z,43.79
2024-03-30T21:26:11.177Z,43.62
2024-03-30T21:28:46.390Z,43.47
2024-03-30T21:31:15.616Z,44.26
2024-03-30T21:33:44.120Z,44.48
2024-03-30T21:36:12.802Z,43.95
2024-03-30T21:38:41.460Z,44.97
2024-03-30T21:41:09.842Z,44.26
2024-03-30T21:43:38.106Z,44.70
2024-03-30T21:46:06.498Z,44.86
2024-03-30T21:48:34.694Z,44.77
2024-03-30T21:51:03.438Z,44.73
2024-03-30T21:53:32.067Z,44.59
2024-03-30T21:56:01.017Z,44.83
2024-03-30T21:58:29.512Z,45.08
2024-03-30T22:00:58.388Z,44.48
2024-03-30T22:03:26.606Z,45.13
2024-03-30T22:05:59.385Z,45.65
2024-03-30T22:08:28.152Z,45.77
2024-03-30T22:10:56.656Z,45.73
2024-03-30T22:13:25.165Z,46.12
2024-03-30T22:15:53.790Z,46.75
2024-03-30T22:18:22.220Z,48.28
2024-03-30T22:20:50.677Z,47.38
2024-03-30T22:23:19.807Z,46.82
2024-03-30T22:25:48.635Z,48.08
2024-03-30T22:28:17.510Z,47.71
2024-03-30T22:30:46.534Z,48.04
2024-03-30T22:33:15.055Z,48.66
2024-03-30T22:35:43.492Z,48.41
2024-03-30T22:38:12.249Z,49.29
2024-03-30T22:40:41.550Z,48.92
2024-03-30T22:43:10.421Z,49.80
2024-03-30T22:45:38.928Z,49.53
2024-03-30T22:48:07.424Z,50.26
2024-03-30T22:50:36.001Z,49.92
2024-03-30T22:53:04.804Z,50.14
2024-03-30T22:55:33.164Z,49.79
2024-03-30T22:58:01.772Z,50.35
2024-03-30T23:00:30.565Z,49.80
2024-03-30T23:02:58.980Z,49.89
2024-03-30T23:05:27.622Z,51.03
2024-03-30T23:07:56.510Z,51.44
2024-03-30T23:10:25.292Z,51.13
2024-03-30T23:12:54.269Z,51.44
2024-03-30T23:15:23.184Z,51.66
2024-03-30T23:17:53.499Z,51.43
2024-03-30T23:20:22.470Z,51.13
2024-03-30T23:22:50.946Z,52.12
2024-03-30T23:25:19.500Z,52.05
2024-03-30T23:27:51.160Z,52.59
2024-03-30T23:30:19.486Z,52.16
2024-03-30T23:32:50.375Z,53.35
2024-03-30T23:35:19.822Z,52.70
2024-03-30T23:37:48.487Z,55.16
2024-03-30T23:40:16.839Z,56.04
2024-03-30T23:42:46.890Z,55.30
2024-03-30T23:45:18.256Z,54.87
2024-03-30T23:47:48.877Z,54.07
2024-03-30T23:50:17.799Z,54.42
2024-03-30T23:52:53.021Z,54.08
2024-03-30T23:55:21.651Z,54.90
2024-03-30T23:57:50.184Z,54.87
